Etusivu
METAR-TAF:

METAR-TAF

Lentoasemat :

Mfuwe, Sambia

Leveyspiiri: 13-15-32S, Pituuspiiri: 031-56-12E, korkeus merenpinnasta: 573 m

METAR: puuttuu

Aika: 22:49 (20:49 UTC)

Sääennuste

Tämä raportti tehtiin 10 tuntia ja 49 minuuttia sitten, kello 10.00 UTC
Ennuste voimassa 22. päivästä klo 12 UTC - 23. päivään klo 18 UTC
Tuuli 10 kn idästä/kaakosta
Näkyvyys 10 km tai enemmän
ei pilviä alle 1500 m:ssä eikä cumulonimbus-pilviä
Tulossa
22. päivästä klo 18 UTC - 22. päivään klo 20 UTC
Tuuli 5 kn idästä
Tulossa
23. päivästä klo 06 UTC - 23. päivään klo 08 UTC
Tuuli 5 kn kaakosta
Tulossa
23. päivästä klo 12 UTC - 23. päivään klo 14 UTC
Tuuli 10 kn idästä/kaakosta puuskistuen 15 kn:hen

TAF: FLMF 221000Z 2212/2318 11010KT CAVOK BECMG 2218/2220 09005KT BECMG 2306/2308 14005KT BECMG 2312/2314 12010G15KT

Säähavainnot ja -ennusteet yli 4000 lentoasemalta (METAR- ja TAF-raportit).

Käytössä olevat sääasemat on merkitty karttaan keltaisilla ja punaisilla pisteillä.

Aseta hiiri pisteen päälle nähdäksesi sääaseman nimen.

Klikkaa sitten nähdäksesi säähavainnot ja -ennusteet.

Kartan vaihtaminen: klikkaa mustalla rastilla varustettuja vihreitä pisteitä, niin voit zoomata sisään; viivalla varustettua vihreää pistettä, niin voit zoomata ulos tai vihreitä nuolia, niin pääset viereisille kartoille.


METAR-TAF: